createdAt,value
2023-03-22T00:00:53.465Z,30.27
2023-03-22T00:03:20.226Z,29.77
2023-03-22T00:05:46.638Z,30.33
2023-03-22T00:08:13.748Z,30.02
2023-03-22T00:10:42.087Z,28.48
2023-03-22T00:13:10.242Z,31.30
2023-03-22T00:15:37.357Z,28.77
2023-03-22T00:18:06.088Z,27.88
2023-03-22T00:20:37.443Z,29.17
2023-03-22T00:23:04.180Z,28.05
2023-03-22T00:25:30.980Z,28.98
2023-03-22T00:27:57.421Z,27.98
2023-03-22T00:30:23.830Z,29.20
2023-03-22T00:32:50.248Z,27.30
2023-03-22T00:35:16.742Z,26.60
2023-03-22T00:37:43.114Z,28.02
2023-03-22T00:40:12.737Z,28.30
2023-03-22T00:42:40.719Z,30.55
2023-03-22T00:45:09.884Z,29.85
2023-03-22T00:47:36.629Z,28.50
2023-03-22T00:50:04.131Z,28.58
2023-03-22T00:52:30.722Z,28.90
2023-03-22T00:54:57.128Z,29.30
2023-03-22T00:57:23.656Z,28.05
2023-03-22T00:59:50.392Z,29.17
2023-03-22T01:02:17.381Z,28.08
2023-03-22T01:04:48.016Z,29.05
2023-03-22T01:07:21.686Z,27.30
2023-03-22T01:09:48.658Z,29.90
2023-03-22T01:12:16.496Z,28.40
2023-03-22T01:14:43.609Z,27.35
2023-03-22T01:17:10.810Z,28.92
2023-03-22T01:19:38.109Z,29.58
2023-03-22T01:22:05.907Z,28.88
2023-03-22T01:24:32.621Z,27.60
2023-03-22T01:26:59.772Z,30.33
2023-03-22T01:29:26.691Z,28.52
2023-03-22T01:31:53.247Z,29.15
2023-03-22T01:34:19.814Z,29.00
2023-03-22T01:36:46.222Z,30.33
2023-03-22T01:39:12.643Z,30.85
2023-03-22T01:41:39.084Z,30.73
2023-03-22T01:44:10.287Z,28.90
2023-03-22T01:46:37.013Z,29.30
2023-03-22T01:49:06.709Z,30.48
2023-03-22T01:51:33.717Z,31.20
2023-03-22T01:54:04.055Z,30.23
2023-03-22T01:56:34.773Z,31.40
2023-03-22T01:59:02.034Z,31.10
2023-03-22T02:01:29.272Z,31.95
2023-03-22T02:04:03.361Z,30.48
2023-03-22T02:06:32.293Z,33.35
2023-03-22T02:08:58.732Z,36.33
2023-03-22T02:11:33.446Z,35.42
2023-03-22T02:14:15.200Z,36.33
2023-03-22T02:17:06.785Z,34.10
2023-03-22T02:19:53.981Z,33.78
2023-03-22T02:22:23.251Z,36.05
2023-03-22T02:25:12.716Z,37.45
2023-03-22T02:28:04.400Z,36.58
2023-03-22T02:30:51.235Z,35.90
2023-03-22T02:33:41.672Z,34.80
2023-03-22T02:36:30.907Z,36.33
2023-03-22T02:39:16.054Z,34.58
2023-03-22T02:42:00.727Z,36.72
2023-03-22T02:47:25.353Z,28.27
2023-03-22T02:50:24.802Z,34.20
2023-03-22T02:52:57.321Z,36.45
2023-03-22T02:56:01.008Z,36.35
2023-03-22T02:58:33.575Z,34.80
2023-03-22T03:01:05.709Z,38.40
2023-03-22T03:03:33.631Z,38.00
2023-03-22T03:06:05.058Z,35.65
2023-03-22T03:08:32.201Z,36.58
2023-03-22T03:10:58.650Z,36.30
2023-03-22T03:13:25.254Z,38.83
2023-03-22T03:15:57.282Z,35.58
2023-03-22T03:18:52.407Z,35.97
2023-03-22T03:21:36.996Z,35.58
2023-03-22T03:27:00.868Z,24.63
2023-03-22T03:29:50.666Z,32.13
2023-03-22T03:32:19.640Z,33.40
2023-03-22T03:34:52.761Z,36.58
2023-03-22T03:37:23.867Z,34.85
2023-03-22T03:40:05.450Z,37.10
2023-03-22T03:42:32.977Z,36.10
2023-03-22T03:44:59.725Z,36.22
2023-03-22T03:47:29.092Z,36.60
2023-03-22T03:49:55.884Z,35.58
2023-03-22T03:52:24.487Z,36.00
2023-03-22T03:54:51.203Z,34.70
2023-03-22T03:57:17.621Z,36.15
2023-03-22T03:59:44.085Z,35.78
2023-03-22T04:02:10.773Z,34.53
2023-03-22T04:04:37.276Z,34.65
2023-03-22T04:07:05.804Z,34.90
2023-03-22T04:09:35.251Z,36.13
2023-03-22T04:12:01.713Z,34.42
2023-03-22T04:14:28.536Z,35.45
2023-03-22T04:16:55.539Z,36.33
2023-03-22T04:19:22.643Z,32.20
2023-03-22T04:21:49.065Z,36.28
2023-03-22T04:24:15.609Z,34.15
2023-03-22T04:26:42.106Z,35.65
2023-03-22T04:29:08.554Z,35.00
2023-03-22T04:31:36.789Z,34.28
2023-03-22T04:34:05.362Z,31.77
2023-03-22T04:36:39.185Z,32.15
2023-03-22T04:39:08.150Z,33.50
2023-03-22T04:41:38.016Z,31.33
2023-03-22T04:44:05.482Z,29.63
2023-03-22T04:46:34.494Z,29.42
2023-03-22T04:49:01.286Z,31.48
2023-03-22T04:51:28.190Z,32.80
2023-03-22T04:53:55.158Z,32.50
2023-03-22T04:56:22.043Z,32.72
2023-03-22T04:58:48.450Z,31.25
2023-03-22T05:01:18.184Z,31.60
2023-03-22T05:03:48.264Z,31.75
2023-03-22T05:06:15.544Z,30.15
2023-03-22T05:08:42.147Z,31.90
2023-03-22T05:11:12.045Z,31.58
2023-03-22T05:13:38.773Z,32.67
2023-03-22T05:16:06.064Z,33.42
2023-03-22T05:18:33.082Z,35.75
2023-03-22T05:21:03.889Z,31.92
2023-03-22T05:23:30.426Z,31.05
2023-03-22T05:25:58.202Z,33.38
2023-03-22T05:28:27.112Z,32.40
2023-03-22T05:30:56.572Z,32.00
2023-03-22T05:33:23.460Z,31.75
2023-03-22T05:35:51.040Z,35.72
2023-03-22T05:38:17.762Z,32.15
2023-03-22T05:40:45.053Z,33.10
2023-03-22T05:43:11.757Z,33.10
2023-03-22T05:45:38.238Z,35.38
2023-03-22T05:48:05.310Z,31.30
2023-03-22T05:50:32.273Z,33.30
2023-03-22T05:52:58.912Z,32.97
2023-03-22T05:55:26.009Z,33.63
2023-03-22T05:57:54.002Z,31.85
2023-03-22T06:00:21.675Z,32.28
2023-03-22T06:02:49.658Z,31.95
2023-03-22T06:05:17.466Z,31.55
2023-03-22T06:07:44.627Z,30.20
2023-03-22T06:10:12.876Z,28.17
2023-03-22T06:12:39.380Z,30.08
2023-03-22T06:15:07.370Z,29.80
2023-03-22T06:17:34.368Z,27.67
2023-03-22T06:20:00.773Z,27.80
2023-03-22T06:22:30.335Z,28.33
2023-03-22T06:24:56.739Z,27.75
2023-03-22T06:27:23.183Z,25.27
2023-03-22T06:29:50.858Z,25.45
2023-03-22T06:32:17.842Z,22.15
2023-03-22T06:34:44.309Z,23.50
2023-03-22T06:37:10.772Z,24.00
2023-03-22T06:39:37.155Z,25.13
2023-03-22T06:42:03.760Z,23.60
2023-03-22T06:44:30.137Z,20.58
2023-03-22T06:46:56.517Z,19.58
2023-03-22T06:49:22.979Z,18.40
2023-03-22T06:51:49.394Z,16.50
2023-03-22T06:54:16.736Z,17.60
2023-03-22T06:56:43.779Z,15.98
2023-03-22T06:59:10.421Z,15.45
2023-03-22T07:01:36.830Z,15.02
2023-03-22T07:04:03.367Z,15.30
2023-03-22T07:06:30.805Z,14.25
2023-03-22T07:08:57.247Z,16.75
2023-03-22T07:11:25.787Z,16.10
2023-03-22T07:13:55.153Z,16.20
2023-03-22T07:16:22.421Z,16.13
2023-03-22T07:18:49.247Z,17.17
2023-03-22T07:21:16.149Z,17.17
2023-03-22T07:23:43.036Z,16.83
2023-03-22T07:26:09.536Z,18.83
2023-03-22T07:28:36.112Z,17.65
2023-03-22T07:31:05.491Z,17.85
2023-03-22T07:33:32.118Z,19.60
2023-03-22T07:35:58.796Z,18.08
2023-03-22T07:38:25.417Z,18.30
2023-03-22T07:40:59.029Z,19.77
2023-03-22T07:43:25.849Z,19.60
2023-03-22T07:45:52.740Z,18.20
2023-03-22T07:48:22.406Z,17.75
2023-03-22T07:50:49.225Z,19.17
2023-03-22T07:53:15.616Z,18.88
2023-03-22T07:55:45.115Z,20.48
2023-03-22T07:58:11.650Z,19.00
2023-03-22T08:00:38.525Z,17.15
2023-03-22T08:03:05.850Z,18.02
2023-03-22T08:05:32.396Z,18.77
2023-03-22T08:07:58.830Z,18.27
2023-03-22T08:10:25.206Z,18.45
2023-03-22T08:12:52.807Z,20.02
2023-03-22T08:15:22.065Z,19.83
2023-03-22T08:17:49.886Z,22.20
2023-03-22T08:20:19.744Z,19.88
2023-03-22T08:22:46.330Z,22.10
2023-03-22T08:25:22.710Z,19.48
2023-03-22T08:27:49.252Z,20.90
2023-03-22T08:30:16.107Z,20.77
2023-03-22T08:32:42.850Z,19.30
2023-03-22T08:35:12.188Z,21.05
2023-03-22T08:37:40.040Z,21.65
2023-03-22T08:40:09.526Z,16.17
2023-03-22T08:42:36.525Z,19.80
2023-03-22T08:45:03.925Z,16.55
2023-03-22T08:47:31.492Z,17.35
2023-03-22T08:50:04.231Z,14.98
2023-03-22T08:52:51.498Z,13.70
2023-03-22T08:55:18.090Z,13.43
2023-03-22T08:57:50.322Z,14.45
2023-03-22T09:00:18.728Z,14.27
2023-03-22T09:02:49.201Z,13.27
2023-03-22T09:05:15.728Z,9.60
2023-03-22T09:07:44.379Z,10.73
2023-03-22T09:10:12.557Z,10.30
2023-03-22T09:12:39.130Z,9.95
2023-03-22T09:15:08.683Z,9.27
2023-03-22T09:17:36.203Z,9.52
2023-03-22T09:20:12.565Z,9.52
2023-03-22T09:22:41.798Z,7.95
2023-03-22T09:25:10.401Z,8.50
2023-03-22T09:27:38.564Z,7.75
2023-03-22T09:30:05.614Z,7.32
2023-03-22T09:32:32.160Z,7.28
2023-03-22T09:35:01.369Z,6.90
2023-03-22T09:37:30.207Z,7.35
2023-03-22T09:39:57.717Z,7.43
2023-03-22T09:42:31.479Z,6.82
2023-03-22T09:45:02.622Z,8.05
2023-03-22T09:47:45.804Z,7.07
2023-03-22T09:50:20.161Z,9.30
2023-03-22T09:55:29.990Z,6.70
2023-03-22T09:58:21.205Z,7.03
2023-03-22T10:00:57.575Z,6.13
2023-03-22T10:03:53.863Z,8.30
2023-03-22T10:06:27.312Z,9.77
2023-03-22T10:12:05.036Z,5.75
2023-03-22T10:14:57.677Z,6.93
2023-03-22T10:17:26.473Z,6.47
2023-03-22T10:20:02.000Z,6.18
2023-03-22T10:22:34.135Z,6.00
2023-03-22T10:25:02.524Z,6.18
2023-03-22T10:27:31.530Z,7.18
2023-03-22T10:30:08.745Z,6.97
2023-03-22T10:32:56.681Z,5.80
2023-03-22T10:35:24.049Z,7.30
2023-03-22T10:37:52.621Z,7.18
2023-03-22T10:40:24.711Z,11.05
2023-03-22T10:42:57.876Z,7.05
2023-03-22T10:45:26.242Z,10.20
2023-03-22T10:48:41.776Z,6.05
2023-03-22T10:51:20.594Z,6.93
2023-03-22T10:53:51.616Z,6.20
2023-03-22T10:56:20.114Z,6.68
2023-03-22T10:58:48.608Z,7.65
2023-03-22T11:01:25.434Z,6.28
2023-03-22T11:04:02.282Z,7.75
2023-03-22T11:06:35.010Z,7.22
2023-03-22T11:09:13.691Z,7.10
2023-03-22T11:11:56.212Z,7.43
2023-03-22T11:14:36.846Z,7.35
2023-03-22T11:17:06.306Z,6.45
2023-03-22T11:19:35.629Z,7.18
2023-03-22T11:22:06.840Z,6.22
2023-03-22T11:24:34.437Z,7.88
2023-03-22T11:27:24.184Z,6.22
2023-03-22T11:29:58.261Z,7.05
2023-03-22T11:32:30.676Z,6.63
2023-03-22T11:35:16.077Z,7.78
2023-03-22T11:37:44.416Z,8.27
2023-03-22T11:40:33.323Z,7.82
2023-03-22T11:43:27.213Z,8.68
2023-03-22T11:45:57.524Z,6.65
2023-03-22T11:48:27.402Z,5.32
2023-03-22T11:50:58.631Z,6.00
2023-03-22T11:53:27.438Z,8.73
2023-03-22T11:55:57.262Z,5.68
2023-03-22T11:58:28.783Z,7.00
2023-03-22T12:00:59.413Z,6.88
2023-03-22T12:03:30.949Z,9.98
2023-03-22T12:06:01.605Z,7.28
2023-03-22T12:08:46.201Z,7.53
2023-03-22T12:11:36.003Z,7.00
2023-03-22T12:14:16.678Z,7.07
2023-03-22T12:16:50.542Z,6.85
2023-03-22T12:19:31.038Z,7.55
2023-03-22T12:21:59.282Z,7.70
2023-03-22T12:24:31.012Z,7.22
2023-03-22T12:27:04.227Z,7.32
2023-03-22T12:29:32.050Z,9.18
2023-03-22T12:32:03.509Z,9.05
2023-03-22T12:34:43.847Z,8.70
2023-03-22T12:37:18.282Z,9.23
2023-03-22T12:39:56.291Z,9.20
2023-03-22T12:42:34.748Z,8.45
2023-03-22T12:45:29.330Z,9.30
2023-03-22T12:48:04.860Z,8.93
2023-03-22T12:50:42.189Z,8.73
2023-03-22T12:53:15.176Z,9.38
2023-03-22T12:55:43.540Z,10.63
2023-03-22T12:58:12.895Z,9.43
2023-03-22T13:00:48.532Z,9.23
2023-03-22T13:03:18.218Z,8.43
2023-03-22T13:05:46.679Z,8.43
2023-03-22T13:08:19.104Z,6.93
2023-03-22T13:10:59.459Z,8.00
2023-03-22T13:13:26.459Z,7.55
2023-03-22T13:15:55.798Z,8.82
2023-03-22T13:18:39.989Z,9.40
2023-03-22T13:21:11.366Z,8.73
2023-03-22T13:23:55.662Z,9.40
2023-03-22T13:26:31.034Z,7.57
2023-03-22T13:28:59.034Z,8.27
2023-03-22T13:31:42.713Z,9.07
2023-03-22T13:34:48.416Z,9.40
2023-03-22T13:37:37.549Z,8.52
2023-03-22T13:40:27.444Z,8.38
2023-03-22T13:42:53.954Z,8.85
2023-03-22T13:45:33.418Z,9.63
2023-03-22T13:48:12.483Z,9.40
2023-03-22T13:50:39.985Z,10.45
2023-03-22T13:53:21.550Z,11.55
2023-03-22T13:55:51.799Z,10.05
2023-03-22T13:58:33.061Z,12.15
2023-03-22T14:01:00.308Z,11.88
2023-03-22T14:03:32.560Z,10.43
2023-03-22T14:06:18.820Z,9.98
2023-03-22T14:08:47.762Z,10.20
2023-03-22T14:11:26.486Z,10.65
2023-03-22T14:14:18.588Z,8.55
2023-03-22T14:17:05.634Z,10.05
2023-03-22T14:19:37.274Z,10.10
